createdAt,value
2022-08-05T08:53:20.008Z,18912.00
2022-08-05T08:54:20.016Z,19392.00
2022-08-05T08:56:04.679Z,19744.00
2022-08-05T08:56:49.620Z,21504.00
2022-08-05T08:57:57.958Z,22400.00
2022-08-05T08:58:48.983Z,23136.00
2022-08-05T08:59:49.028Z,24576.00
2022-08-05T09:00:48.080Z,31200.00
2022-08-05T09:01:57.396Z,43904.00
2022-08-05T09:02:48.922Z,31776.00
2022-08-05T09:03:48.224Z,59520.00
2022-08-05T09:05:16.857Z,34848.00
2022-08-05T09:06:07.624Z,37088.00
2022-08-05T09:06:49.950Z,33600.00
2022-08-05T09:07:56.985Z,49280.00
2022-08-05T09:08:48.846Z,76896.00
2022-08-05T09:09:47.839Z,79232.00
2022-08-05T09:10:48.075Z,77760.00
2022-08-05T09:11:50.789Z,63328.00
2022-08-05T09:12:51.048Z,40544.00
2022-08-05T09:14:09.555Z,36000.00
2022-08-05T09:14:57.812Z,59808.00
2022-08-05T09:15:48.851Z,53632.00
2022-08-05T09:16:48.778Z,49632.00
2022-08-05T09:17:49.695Z,47456.00
2022-08-05T09:18:47.780Z,49248.00
2022-08-05T09:19:55.041Z,50016.00
2022-08-05T09:20:48.779Z,26656.00
2022-08-05T09:22:22.657Z,21376.00
2022-08-05T09:22:51.957Z,22400.00
2022-08-05T09:23:47.685Z,49824.00
2022-08-05T09:24:47.733Z,48640.00
2022-08-05T09:26:01.420Z,52000.00
2022-08-05T09:26:48.720Z,52224.00
2022-08-05T09:28:04.564Z,54976.00
2022-08-05T09:28:48.800Z,58976.00
2022-08-05T09:29:48.196Z,61920.00
2022-08-05T09:30:47.682Z,65696.00
2022-08-05T09:32:41.546Z,70208.00
2022-08-05T09:32:48.710Z,77280.00
2022-08-05T09:33:47.647Z,82240.00
2022-08-05T09:34:47.652Z,61760.00
2022-08-05T09:35:47.710Z,42272.00
2022-08-05T09:36:55.022Z,60864.00
2022-08-05T09:38:17.763Z,76576.00
2022-08-05T09:38:48.533Z,75744.00
2022-08-05T09:39:52.354Z,51360.00
2022-08-05T09:40:53.737Z,71744.00
2022-08-05T09:41:53.956Z,70240.00
2022-08-05T09:42:48.573Z,77792.00
2022-08-05T09:43:49.448Z,71584.00
2022-08-05T09:44:49.466Z,68960.00
2022-08-05T09:46:06.177Z,73568.00
2022-08-05T09:46:51.757Z,50880.00
2022-08-05T09:47:55.977Z,45024.00
2022-08-05T09:49:06.570Z,72192.00
2022-08-05T09:50:00.412Z,52256.00
2022-08-05T09:50:48.504Z,61344.00
2022-08-05T09:51:49.401Z,59168.00
2022-08-05T09:52:47.454Z,66368.00
2022-08-05T09:53:54.313Z,84128.00
2022-08-05T09:54:48.377Z,41824.00
2022-08-05T09:55:57.383Z,37120.00
2022-08-05T09:56:51.837Z,39840.00
2022-08-05T09:57:47.437Z,40768.00
2022-08-05T09:58:47.457Z,54400.00
2022-08-05T09:59:47.326Z,53696.00
2022-08-05T10:00:47.409Z,49472.00
2022-08-05T10:01:47.358Z,40032.00
2022-08-05T10:02:47.564Z,37472.00
2022-08-05T10:03:58.576Z,35296.00
2022-08-05T10:04:48.269Z,27616.00
2022-08-05T10:05:47.450Z,25440.00
2022-08-05T10:06:54.773Z,27968.00
2022-08-05T10:08:35.539Z,79552.00
2022-08-05T10:08:53.946Z,85344.00
2022-08-05T10:09:48.222Z,87936.00
2022-08-05T10:10:48.381Z,87392.00
2022-08-05T10:11:48.213Z,73504.00
2022-08-05T10:12:49.479Z,48128.00
2022-08-05T10:13:49.208Z,68704.00
2022-08-05T10:14:47.218Z,86624.00
2022-08-05T10:15:47.282Z,83328.00
2022-08-05T10:16:52.427Z,83648.00
2022-08-05T10:17:56.861Z,83040.00
2022-08-05T10:18:48.392Z,84832.00
2022-08-05T10:20:03.865Z,66720.00
2022-08-05T10:20:48.521Z,50528.00
2022-08-05T10:21:47.102Z,66944.00
2022-08-05T10:22:50.757Z,75520.00
2022-08-05T10:23:59.947Z,76544.00
2022-08-05T10:24:48.112Z,78304.00
2022-08-05T10:25:47.090Z,74304.00
2022-08-05T10:26:51.910Z,57088.00
2022-08-05T10:28:12.845Z,49664.00
2022-08-05T10:28:48.238Z,44896.00
2022-08-05T10:30:06.952Z,44416.00
2022-08-05T10:32:50.751Z,57792.00
2022-08-05T10:32:59.896Z,47776.00
2022-08-05T10:33:00.859Z,49152.00
2022-08-05T10:33:54.357Z,73568.00
2022-08-05T10:34:47.978Z,87552.00
2022-08-05T10:35:59.048Z,87104.00
2022-08-05T10:36:47.954Z,88960.00
2022-08-05T10:37:47.069Z,62496.00
2022-08-05T10:38:47.061Z,41856.00
2022-08-05T10:40:03.865Z,47808.00
2022-08-05T10:40:48.000Z,72192.00
2022-08-05T10:41:47.406Z,82784.00
2022-08-05T10:42:46.910Z,89824.00
2022-08-05T10:43:46.942Z,93632.00
2022-08-05T10:44:46.930Z,82208.00
2022-08-05T10:45:46.978Z,84416.00
2022-08-05T10:46:46.935Z,80352.00
2022-08-05T10:47:47.167Z,81664.00
2022-08-05T10:48:56.967Z,94688.00
2022-08-05T10:49:49.108Z,91328.00
2022-08-05T10:50:47.849Z,93696.00
2022-08-05T10:51:53.155Z,94624.00
2022-08-05T10:52:49.827Z,98368.00
2022-08-05T10:53:46.790Z,95648.00
2022-08-05T10:54:56.048Z,90176.00
2022-08-05T10:56:04.952Z,91648.00
2022-08-05T10:56:49.403Z,92000.00
2022-08-05T10:57:46.913Z,92000.00
2022-08-05T10:58:48.625Z,65216.00
2022-08-05T11:00:03.770Z,85280.00
2022-08-05T11:00:47.776Z,83392.00
2022-08-05T11:02:02.800Z,82784.00
2022-08-05T11:02:50.521Z,72128.00
2022-08-05T11:03:46.777Z,80448.00
2022-08-05T11:04:46.784Z,84960.00
2022-08-05T11:05:46.881Z,84800.00
2022-08-05T11:06:46.730Z,85344.00
2022-08-05T11:08:01.814Z,84256.00
2022-08-05T11:08:47.733Z,90336.00
2022-08-05T11:09:47.251Z,98592.00
2022-08-05T11:10:59.992Z,103040.00
2022-08-05T11:11:52.855Z,104224.00
2022-08-05T11:12:54.328Z,108928.00
2022-08-05T11:13:58.004Z,110048.00
2022-08-05T11:15:11.864Z,108096.00
2022-08-05T11:16:00.596Z,108256.00
2022-08-05T11:16:57.248Z,106720.00
2022-08-05T11:17:57.615Z,110688.00
2022-08-05T11:18:47.580Z,110880.00
2022-08-05T11:20:16.961Z,103968.00
2022-08-05T11:20:47.640Z,53120.00
2022-08-05T11:21:49.462Z,70432.00
2022-08-05T11:22:50.023Z,54592.00
2022-08-05T11:24:05.160Z,99936.00
2022-08-05T11:24:50.670Z,120288.00
2022-08-05T11:26:06.223Z,100160.00
2022-08-05T11:26:49.768Z,110112.00
2022-08-05T11:27:51.999Z,78080.00
2022-08-05T11:28:47.594Z,57888.00
2022-08-05T11:29:46.483Z,63200.00
2022-08-05T11:30:46.572Z,82848.00
2022-08-05T11:31:57.291Z,85056.00
2022-08-05T11:32:47.805Z,81472.00
2022-08-05T11:33:48.132Z,89696.00
2022-08-05T11:34:50.858Z,95392.00
2022-08-05T11:36:08.254Z,88032.00
2022-08-05T11:36:47.481Z,74752.00
2022-08-05T11:38:30.853Z,93984.00
2022-08-05T11:38:51.855Z,84416.00
2022-08-05T11:39:48.065Z,84992.00
2022-08-05T11:40:46.709Z,60896.00
2022-08-05T11:42:00.681Z,83168.00
2022-08-05T11:42:47.364Z,95456.00
2022-08-05T11:44:04.645Z,89152.00
2022-08-05T11:44:53.731Z,77984.00
2022-08-05T11:46:23.428Z,79776.00
2022-08-05T11:46:58.607Z,101600.00
2022-08-05T11:47:48.452Z,88352.00
2022-08-05T11:48:46.344Z,103872.00
2022-08-05T11:49:50.888Z,98944.00
2022-08-05T11:50:47.270Z,100832.00
2022-08-05T11:51:49.160Z,99264.00
2022-08-05T11:52:48.758Z,95584.00
2022-08-05T11:53:46.244Z,98720.00
2022-08-05T11:54:48.465Z,94880.00
2022-08-05T11:55:47.227Z,97248.00
2022-08-05T11:56:50.265Z,96256.00
2022-08-05T11:58:11.012Z,94272.00
2022-08-05T11:58:52.810Z,91616.00
2022-08-05T11:59:50.231Z,75104.00
2022-08-05T12:00:46.965Z,81888.00
2022-08-05T12:01:47.186Z,81760.00
2022-08-05T12:02:47.182Z,87104.00
2022-08-05T12:03:56.118Z,95072.00
2022-08-05T12:04:47.200Z,93792.00
2022-08-05T12:05:47.234Z,90144.00
2022-08-05T12:06:48.689Z,94176.00
2022-08-05T12:08:07.283Z,81504.00
2022-08-05T12:08:50.047Z,83264.00
2022-08-05T12:09:53.126Z,96864.00
2022-08-05T12:10:47.082Z,95360.00
2022-08-05T12:11:46.180Z,95392.00
2022-08-05T12:12:55.366Z,96864.00
2022-08-05T12:13:48.454Z,90656.00
2022-08-05T12:14:47.246Z,80064.00
2022-08-05T12:15:49.616Z,76160.00
2022-08-05T12:16:46.486Z,60096.00
2022-08-05T12:18:09.974Z,97824.00
2022-08-05T12:18:49.332Z,107552.00
2022-08-05T12:20:17.169Z,75264.00
2022-08-05T12:20:47.038Z,107936.00
2022-08-05T12:21:45.998Z,106528.00
2022-08-05T12:22:46.261Z,66208.00
2022-08-05T12:23:46.097Z,49856.00
2022-08-05T12:24:49.532Z,60608.00
2022-08-05T12:25:45.938Z,43680.00
2022-08-05T12:26:46.169Z,39904.00
2022-08-05T12:27:53.090Z,38816.00
2022-08-05T12:28:46.922Z,35936.00
2022-08-05T12:29:45.892Z,37504.00
2022-08-05T12:30:46.914Z,44768.00
2022-08-05T12:31:50.223Z,54304.00
2022-08-05T12:32:49.646Z,87424.00
2022-08-05T12:33:46.230Z,66400.00
2022-08-05T12:34:45.849Z,75232.00
2022-08-05T12:35:46.451Z,89632.00
2022-08-05T12:36:45.932Z,93664.00
2022-08-05T12:37:45.831Z,61792.00
2022-08-05T12:38:45.804Z,37280.00
2022-08-05T12:39:51.420Z,70144.00
2022-08-05T12:40:46.840Z,92672.00
2022-08-05T12:41:45.930Z,93344.00
2022-08-05T12:42:45.907Z,94432.00
2022-08-05T12:43:46.059Z,86848.00
2022-08-05T12:44:45.767Z,93536.00
2022-08-05T12:45:49.733Z,94752.00
2022-08-05T12:46:45.843Z,98400.00
2022-08-05T12:48:01.764Z,92608.00
2022-08-05T12:48:45.737Z,99680.00
2022-08-05T12:50:04.098Z,102848.00
2022-08-05T12:50:46.811Z,107936.00
2022-08-05T12:52:14.291Z,103360.00
2022-08-05T12:52:46.805Z,109024.00
2022-08-05T12:53:55.592Z,99616.00
2022-08-05T12:54:46.718Z,91200.00
2022-08-05T12:55:45.655Z,57920.00
2022-08-05T12:56:45.656Z,34912.00
2022-08-05T12:58:50.572Z,33952.00
2022-08-05T12:58:51.627Z,33152.00
2022-08-05T13:01:56.895Z,31712.00
2022-08-05T13:02:03.861Z,30144.00
2022-08-05T13:02:04.442Z,30624.00
2022-08-05T13:02:47.162Z,29856.00
2022-08-05T13:03:45.743Z,30624.00
2022-08-05T13:04:52.486Z,31104.00
2022-08-05T13:05:46.583Z,31584.00
2022-08-05T13:06:51.898Z,32480.00
2022-08-05T13:08:02.444Z,34560.00
2022-08-05T13:08:51.847Z,34976.00
2022-08-05T13:09:50.434Z,33056.00
2022-08-05T13:10:50.366Z,32704.00
2022-08-05T13:12:02.524Z,32192.00
2022-08-05T13:12:51.014Z,32192.00
2022-08-05T13:14:05.297Z,32032.00
2022-08-05T13:14:46.477Z,33248.00
2022-08-05T13:15:50.627Z,32480.00
2022-08-05T13:16:45.496Z,30144.00
2022-08-05T13:17:45.450Z,27840.00
2022-08-05T13:18:45.514Z,25760.00
2022-08-05T13:19:52.643Z,24128.00
2022-08-05T13:20:46.446Z,23168.00
2022-08-05T13:21:48.087Z,23232.00
2022-08-05T13:22:46.391Z,24192.00
2022-08-05T13:23:50.695Z,26880.00
2022-08-05T13:24:58.138Z,28416.00
2022-08-05T13:25:52.623Z,28512.00
2022-08-05T13:26:50.803Z,28352.00
2022-08-05T13:27:45.677Z,27104.00
2022-08-05T13:28:46.589Z,27456.00
2022-08-05T13:30:33.020Z,27712.00
2022-08-05T13:30:46.353Z,28768.00
2022-08-05T13:32:03.938Z,30304.00
2022-08-05T13:32:46.656Z,32320.00
2022-08-05T13:34:21.464Z,32576.00
2022-08-05T13:34:46.289Z,32576.00
2022-08-05T13:35:51.329Z,32352.00
2022-08-05T13:36:46.462Z,30752.00
2022-08-05T13:37:46.579Z,29280.00
2022-08-05T13:38:46.305Z,28256.00
2022-08-05T13:40:13.878Z,27776.00
2022-08-05T13:40:49.929Z,27680.00
2022-08-05T13:41:46.756Z,27776.00
2022-08-05T13:42:45.223Z,27744.00
2022-08-05T13:43:54.828Z,28544.00
2022-08-05T13:44:46.447Z,28512.00
2022-08-05T13:45:45.663Z,29280.00
2022-08-05T13:47:04.986Z,30944.00
2022-08-05T13:48:09.888Z,32352.00
2022-08-05T13:48:57.962Z,31616.00
2022-08-05T13:49:46.570Z,30112.00
2022-08-05T13:50:45.151Z,29824.00
2022-08-05T13:51:46.538Z,29440.00
2022-08-05T13:52:45.116Z,29504.00
2022-08-05T13:53:47.852Z,29344.00
2022-08-05T13:54:53.328Z,28992.00
2022-08-05T13:55:50.167Z,27872.00
2022-08-05T13:56:51.493Z,27456.00
2022-08-05T13:57:50.935Z,27648.00
2022-08-05T13:58:53.465Z,27552.00
2022-08-05T13:59:59.372Z,27232.00
2022-08-05T14:00:46.038Z,25984.00
2022-08-05T14:01:56.663Z,24864.00
2022-08-05T14:02:46.083Z,24256.00
2022-08-05T14:03:45.025Z,23104.00
2022-08-05T14:04:51.079Z,22464.00
2022-08-05T14:06:04.735Z,22912.00
2022-08-05T14:06:47.581Z,23584.00
2022-08-05T14:07:59.894Z,23168.00
2022-08-05T14:08:45.935Z,22624.00
2022-08-05T14:09:46.340Z,22208.00
2022-08-05T14:10:44.931Z,22560.00
2022-08-05T14:12:04.365Z,22016.00
2022-08-05T14:12:48.825Z,21440.00
2022-08-05T14:13:48.259Z,21408.00
2022-08-05T14:14:44.959Z,21920.00
2022-08-05T14:16:05.295Z,22784.00
2022-08-05T14:16:45.906Z,22272.00
2022-08-05T14:17:44.972Z,21888.00
2022-08-05T14:18:44.861Z,21920.00
2022-08-05T14:19:54.378Z,21120.00
2022-08-05T14:20:46.829Z,19392.00
2022-08-05T14:22:09.368Z,17344.00
2022-08-05T14:22:50.222Z,14904.00
2022-08-05T14:23:44.791Z,12648.00
2022-08-05T14:24:44.845Z,11096.00
2022-08-05T14:25:45.399Z,10352.00
2022-08-05T14:27:01.951Z,10056.00
2022-08-05T14:27:47.477Z,9884.00
2022-08-05T14:28:52.428Z,9800.00
2022-08-05T14:29:45.890Z,9696.00
2022-08-05T14:30:46.415Z,9596.00
2022-08-05T14:32:02.600Z,9472.00
2022-08-05T14:32:45.859Z,9392.00
2022-08-05T14:34:00.202Z,9304.00
2022-08-05T14:34:45.725Z,9280.00
2022-08-05T14:35:50.242Z,9148.00
2022-08-05T14:36:48.665Z,9148.00
2022-08-05T14:37:45.607Z,9148.00
2022-08-05T14:38:44.711Z,9248.00
2022-08-05T14:39:49.907Z,9264.00
2022-08-05T14:40:45.650Z,9280.00
2022-08-05T14:42:08.749Z,9256.00
2022-08-05T14:42:45.658Z,9208.00
2022-08-05T14:44:02.724Z,9156.00
2022-08-05T14:44:45.579Z,9140.00
2022-08-05T14:45:44.592Z,9140.00
2022-08-05T14:46:44.764Z,9148.00
2022-08-05T14:48:03.501Z,9080.00
2022-08-05T14:48:49.847Z,8964.00
2022-08-05T14:49:59.493Z,8988.00
2022-08-05T14:50:45.546Z,8920.00
2022-08-05T14:51:44.518Z,8936.00
2022-08-05T14:52:53.052Z,8876.00
2022-08-05T14:53:45.545Z,8852.00
2022-08-05T14:54:52.929Z,8752.00
2022-08-05T14:55:52.088Z,8728.00
2022-08-05T14:56:46.906Z,8616.00
2022-08-05T14:57:54.414Z,8544.00
2022-08-05T14:58:47.799Z,8508.00
2022-08-05T14:59:45.446Z,8448.00
2022-08-05T15:00:58.327Z,8440.00
2022-08-05T15:01:48.719Z,8380.00
2022-08-05T15:02:45.508Z,8376.00
2022-08-05T15:03:45.300Z,8344.00
2022-08-05T15:04:45.029Z,8368.00
2022-08-05T15:06:12.970Z,8356.00
2022-08-05T15:08:56.862Z,8268.00
2022-08-05T15:09:51.145Z,8212.00
2022-08-05T15:10:33.497Z,8188.00
2022-08-05T15:11:52.692Z,8212.00
2022-08-05T15:17:45.656Z,8116.00
2022-08-05T15:18:34.972Z,8116.00
2022-08-05T15:19:33.989Z,8068.00
2022-08-05T15:20:33.955Z,8076.00
2022-08-05T15:21:33.990Z,8084.00
2022-08-05T15:22:33.925Z,8104.00
2022-08-05T15:23:33.901Z,8072.00
2022-08-05T15:24:33.908Z,8108.00
2022-08-05T15:25:52.906Z,8076.00
2022-08-05T15:26:34.938Z,8124.00
2022-08-05T15:27:35.982Z,8084.00
2022-08-05T15:28:33.937Z,8080.00
2022-08-05T15:29:41.649Z,8068.00
2022-08-05T15:30:35.126Z,7988.00
2022-08-05T15:31:34.844Z,8028.00
2022-08-05T15:32:33.806Z,8064.00
2022-08-05T15:34:18.579Z,8136.00
2022-08-05T15:34:34.894Z,8140.00
2022-08-05T15:35:36.341Z,8180.00
2022-08-05T15:36:34.790Z,8164.00
2022-08-05T15:38:32.667Z,8164.00
2022-08-05T15:38:41.779Z,8316.00
2022-08-05T15:40:58.875Z,8516.00
2022-08-05T15:41:00.147Z,8776.00
2022-08-05T15:41:57.702Z,8948.00
2022-08-05T15:42:57.526Z,9168.00
2022-08-05T15:43:45.559Z,9320.00
2022-08-05T15:44:34.719Z,9628.00
2022-08-05T15:45:38.025Z,9880.00
2022-08-05T15:46:35.745Z,10056.00
2022-08-05T15:47:35.927Z,10160.00
2022-08-05T15:48:33.648Z,10108.00
2022-08-05T15:49:55.097Z,10020.00
2022-08-05T15:50:34.643Z,9920.00
2022-08-05T15:52:13.878Z,9856.00
2022-08-05T15:52:53.807Z,9716.00
2022-08-05T15:53:38.354Z,9588.00
2022-08-05T15:54:37.425Z,9436.00
2022-08-05T15:56:04.129Z,9408.00
2022-08-05T15:56:34.658Z,9332.00
2022-08-05T15:57:34.762Z,9360.00
2022-08-05T15:58:35.516Z,9372.00
2022-08-05T15:59:33.540Z,9452.00
2022-08-05T16:00:50.499Z,9520.00
2022-08-05T16:01:39.823Z,9524.00
2022-08-05T16:02:34.716Z,9384.00
2022-08-05T16:03:33.996Z,9432.00
2022-08-05T16:04:33.610Z,9424.00
2022-08-05T16:05:33.458Z,9384.00
2022-08-05T16:06:33.485Z,8572.00
2022-08-05T16:07:33.773Z,9604.00
2022-08-05T16:08:33.422Z,9632.00
2022-08-05T16:09:33.413Z,9412.00
2022-08-05T16:10:33.417Z,9116.00
2022-08-05T16:11:42.414Z,8908.00
2022-08-05T16:12:34.445Z,8664.00
2022-08-05T16:13:34.854Z,8480.00
2022-08-05T16:14:33.401Z,8580.00
2022-08-05T16:15:33.943Z,8728.00
2022-08-05T16:16:33.712Z,8784.00
2022-08-05T16:17:33.337Z,8736.00
2022-08-05T16:18:33.451Z,8384.00
2022-08-05T16:20:05.159Z,8064.00
2022-08-05T16:20:34.680Z,7852.00
2022-08-05T16:21:58.249Z,7668.00
2022-08-05T16:22:34.761Z,7580.00
2022-08-05T16:23:53.835Z,7540.00
2022-08-05T16:24:39.864Z,7576.00
2022-08-05T16:25:34.764Z,7640.00
2022-08-05T16:26:33.266Z,7724.00
2022-08-05T16:27:47.147Z,7896.00
2022-08-05T16:28:34.214Z,8184.00
2022-08-05T16:29:37.634Z,8572.00
2022-08-05T16:30:33.188Z,8856.00
2022-08-05T16:31:57.354Z,8952.00
2022-08-05T16:32:34.620Z,9028.00
2022-08-05T16:33:41.317Z,9156.00
2022-08-05T16:34:34.417Z,9008.00
2022-08-05T16:35:33.661Z,8772.00
2022-08-05T16:36:34.201Z,8508.00
2022-08-05T16:38:03.073Z,8512.00
2022-08-05T16:38:34.144Z,8828.00
2022-08-05T16:40:04.545Z,8948.00
2022-08-05T16:40:34.164Z,8888.00
2022-08-05T16:42:14.041Z,9100.00
2022-08-05T16:42:34.736Z,9284.00
2022-08-05T16:43:33.052Z,9352.00
2022-08-05T16:44:33.184Z,9392.00
2022-08-05T16:46:03.478Z,9328.00
2022-08-05T16:46:34.029Z,9180.00
2022-08-05T16:47:36.017Z,8984.00
2022-08-05T16:48:35.362Z,8704.00
2022-08-05T16:49:33.024Z,8448.00
2022-08-05T16:50:33.065Z,8120.00
2022-08-05T16:51:47.534Z,7896.00
2022-08-05T16:52:34.006Z,7748.00
2022-08-05T16:54:04.897Z,7848.00
2022-08-05T16:54:33.940Z,8264.00
2022-08-05T16:55:46.543Z,8688.00
2022-08-05T16:56:34.000Z,9044.00
2022-08-05T16:58:00.352Z,9160.00
2022-08-05T16:58:33.921Z,9096.00
2022-08-05T16:59:32.885Z,8792.00
2022-08-05T17:00:35.031Z,8264.00
2022-08-05T17:01:54.997Z,7704.00
2022-08-05T17:02:33.885Z,7216.00
2022-08-05T17:03:32.880Z,6700.00
2022-08-05T17:04:32.870Z,6352.00
2022-08-05T17:05:32.845Z,6212.00
2022-08-05T17:06:32.813Z,6156.00
2022-08-05T17:07:43.685Z,6152.00
2022-08-05T17:08:51.909Z,6132.00
2022-08-05T17:09:57.251Z,6080.00
2022-08-05T17:10:33.813Z,6040.00
2022-08-05T17:11:48.272Z,5916.00
2022-08-05T17:12:50.327Z,5832.00
2022-08-05T17:13:37.071Z,5788.00
2022-08-05T17:14:37.007Z,5732.00
2022-08-05T17:15:48.562Z,5716.00
2022-08-05T17:16:36.101Z,5768.00
2022-08-05T17:17:42.416Z,5788.00
2022-08-05T17:18:33.822Z,5860.00
2022-08-05T17:19:32.677Z,5948.00
2022-08-05T17:20:32.660Z,6108.00
2022-08-05T17:21:36.387Z,6288.00
2022-08-05T17:22:32.669Z,6424.00
2022-08-05T17:24:04.841Z,6536.00
2022-08-05T17:24:40.315Z,6568.00
2022-08-05T17:25:39.917Z,6568.00
2022-08-05T17:26:33.657Z,6528.00
2022-08-05T17:27:33.698Z,6508.00
2022-08-05T17:28:32.586Z,6428.00
2022-08-05T17:29:33.931Z,6364.00
2022-08-05T17:30:33.544Z,6272.00
2022-08-05T17:31:56.466Z,6212.00
2022-08-05T17:32:34.620Z,6152.00
2022-08-05T17:33:38.923Z,6044.00
2022-08-05T17:34:34.863Z,5884.00
2022-08-05T17:36:07.855Z,5756.00
2022-08-05T17:36:37.295Z,5616.00
2022-08-05T17:37:40.202Z,5484.00
2022-08-05T17:38:33.471Z,5432.00
2022-08-05T17:39:34.655Z,5428.00
2022-08-05T17:40:32.449Z,5428.00
2022-08-05T17:42:18.158Z,5428.00
2022-08-05T17:42:33.500Z,5412.00
2022-08-05T17:43:46.521Z,5380.00
2022-08-05T17:44:33.480Z,5292.00
2022-08-05T17:45:38.516Z,5216.00
2022-08-05T17:46:33.378Z,5120.00
2022-08-05T17:47:32.416Z,5040.00
2022-08-05T17:48:32.353Z,4952.00
2022-08-05T17:50:00.523Z,4896.00
2022-08-05T17:50:33.557Z,4812.00
2022-08-05T17:51:40.393Z,4756.00
2022-08-05T17:52:33.467Z,4660.00
2022-08-05T17:53:33.021Z,4564.00
2022-08-05T17:54:32.300Z,4460.00
2022-08-05T17:55:37.121Z,4368.00
2022-08-05T17:56:33.267Z,4236.00
2022-08-05T17:57:32.272Z,4140.00
2022-08-05T17:58:32.717Z,4032.00
2022-08-05T17:59:32.362Z,3928.00
2022-08-05T18:00:32.254Z,3800.00
2022-08-05T18:01:47.230Z,3700.00
2022-08-05T18:02:33.277Z,3600.00
2022-08-05T18:03:56.285Z,3492.00
2022-08-05T18:04:33.236Z,3380.00
2022-08-05T18:05:35.378Z,3276.00
2022-08-05T18:06:32.367Z,3160.00
2022-08-05T18:07:32.958Z,3044.00
2022-08-05T18:08:33.206Z,2944.00
2022-08-05T18:09:59.709Z,2864.00
2022-08-05T18:10:33.689Z,2808.00
2022-08-05T18:11:32.844Z,2772.00
2022-08-05T18:12:32.127Z,2712.00
2022-08-05T18:13:36.666Z,2628.00
2022-08-05T18:14:33.157Z,2512.00
2022-08-05T18:15:34.299Z,2392.00
2022-08-05T18:16:32.110Z,2272.00
2022-08-05T18:17:58.684Z,2152.00
2022-08-05T18:18:33.219Z,2044.00
2022-08-05T18:19:33.122Z,1936.00
2022-08-05T18:20:32.502Z,1836.00
2022-08-05T18:22:08.735Z,1748.00
2022-08-05T18:22:45.953Z,1660.00
2022-08-05T18:23:45.679Z,1552.00
2022-08-05T18:24:32.970Z,1456.00
2022-08-05T18:25:33.012Z,1364.00
2022-08-05T18:26:32.289Z,1272.00
2022-08-05T18:27:32.479Z,1188.00
2022-08-05T18:28:32.067Z,1108.00
2022-08-05T18:29:40.657Z,1028.00
2022-08-05T18:30:32.916Z,940.00
2022-08-05T18:31:32.954Z,848.00
2022-08-05T18:32:32.198Z,752.00
2022-08-05T18:33:46.642Z,616.00
2022-08-05T18:34:40.736Z,496.00
2022-08-05T18:36:01.399Z,420.00
2022-08-05T18:36:32.908Z,360.00
2022-08-05T18:37:34.103Z,316.00
2022-08-05T18:38:32.809Z,284.00
2022-08-05T18:40:30.922Z,252.00
2022-08-05T18:41:53.055Z,232.00
2022-08-05T18:41:53.758Z,216.00
2022-08-05T18:42:32.865Z,204.00
2022-08-05T18:43:37.928Z,192.00
2022-08-05T18:44:35.286Z,176.00
2022-08-05T18:45:41.495Z,164.00
2022-08-05T18:46:32.828Z,152.00
2022-08-05T18:47:31.875Z,152.00
2022-08-05T18:48:33.320Z,152.00
2022-08-05T18:49:44.518Z,152.00
2022-08-05T18:50:44.924Z,148.00
2022-08-05T18:52:05.768Z,136.00
2022-08-05T18:52:33.644Z,124.00
2022-08-05T18:53:31.710Z,116.00
2022-08-05T18:54:31.943Z,116.00
2022-08-05T18:55:31.728Z,112.00
2022-08-05T18:56:31.671Z,108.00
2022-08-05T18:57:43.333Z,100.00
2022-08-05T18:58:32.670Z,96.00
2022-08-05T18:59:42.874Z,88.00
2022-08-05T19:00:34.799Z,72.00
2022-08-05T19:01:47.820Z,60.00
2022-08-05T19:02:32.599Z,44.00
2022-08-05T19:03:54.910Z,36.00
2022-08-05T19:04:32.538Z,28.00
2022-08-05T19:06:11.561Z,28.00
2022-08-05T19:06:37.227Z,28.00
2022-08-05T19:07:45.411Z,28.00
2022-08-05T19:08:32.497Z,28.00
2022-08-05T19:09:39.466Z,32.00
2022-08-05T19:10:32.588Z,32.00
2022-08-05T19:11:59.436Z,32.00
2022-08-05T19:12:32.496Z,24.00
2022-08-05T19:13:35.512Z,20.00
2022-08-05T19:14:59.570Z,12.00
2022-08-05T19:15:58.877Z,12.00
2022-08-05T19:16:36.889Z,8.00
2022-08-05T19:17:59.172Z,8.00
2022-08-05T19:18:32.385Z,4.00
2022-08-05T19:19:31.475Z,4.00
2022-08-05T19:20:31.362Z,4.00
2022-08-05T19:21:34.785Z,4.00
2022-08-05T19:22:31.594Z,4.00
2022-08-05T19:24:07.724Z,4.00
2022-08-05T19:24:34.389Z,0.00
2022-08-05T19:25:39.035Z,4.00
2022-08-05T19:26:32.354Z,0.00
2022-08-05T19:27:31.498Z,4.00
2022-08-05T19:28:33.031Z,0.00
2022-08-05T19:29:35.718Z,0.00
2022-08-05T19:30:32.269Z,0.00
2022-08-05T19:31:33.743Z,0.00
2022-08-05T19:32:32.261Z,0.00
2022-08-05T19:33:36.260Z,0.00
2022-08-05T19:34:32.284Z,0.00
2022-08-05T19:35:57.627Z,0.00
2022-08-05T19:36:32.323Z,0.00
2022-08-05T19:37:47.423Z,0.00
2022-08-05T19:38:32.162Z,0.00
2022-08-05T19:39:31.932Z,0.00
2022-08-05T19:40:32.243Z,0.00
2022-08-05T19:41:58.149Z,0.00
2022-08-05T19:42:35.417Z,0.00
2022-08-05T19:44:06.984Z,0.00
2022-08-05T19:44:32.183Z,0.00
2022-08-05T19:45:33.346Z,0.00
2022-08-05T19:46:32.142Z,0.00
2022-08-05T19:47:31.148Z,0.00
2022-08-05T19:48:31.203Z,0.00
2022-08-05T19:49:31.079Z,0.00
2022-08-05T19:50:31.036Z,0.00
2022-08-05T19:52:08.853Z,0.00
2022-08-05T19:52:32.661Z,0.00
2022-08-05T19:54:04.207Z,0.00
2022-08-05T19:54:32.094Z,0.00
2022-08-05T19:56:13.794Z,0.00
2022-08-05T19:56:32.620Z,0.00
2022-08-05T19:57:49.158Z,0.00
2022-08-05T19:58:32.118Z,0.00
2022-08-05T19:59:56.386Z,0.00
2022-08-05T20:00:32.001Z,0.00
2022-08-05T20:01:31.016Z,0.00
2022-08-05T20:02:31.309Z,0.00
2022-08-05T20:03:40.684Z,0.00
2022-08-05T20:04:31.996Z,0.00
2022-08-05T20:05:50.222Z,0.00
2022-08-05T20:06:36.043Z,0.00
2022-08-05T20:07:46.514Z,0.00
2022-08-05T20:08:31.879Z,0.00
2022-08-05T20:09:30.826Z,0.00
2022-08-05T20:10:31.817Z,0.00
2022-08-05T20:11:30.832Z,0.00
2022-08-05T20:12:32.266Z,0.00
2022-08-05T20:13:59.039Z,0.00
2022-08-05T20:14:31.871Z,0.00
2022-08-05T20:15:52.049Z,0.00
2022-08-05T20:16:31.989Z,0.00
2022-08-05T20:17:30.811Z,0.00
2022-08-05T20:18:33.622Z,0.00
2022-08-05T20:19:36.014Z,0.00
2022-08-05T20:20:31.750Z,0.00
2022-08-05T20:21:30.897Z,0.00
2022-08-05T20:22:30.729Z,0.00
2022-08-05T20:23:40.450Z,0.00
2022-08-05T20:24:31.728Z,0.00
2022-08-05T20:25:33.833Z,0.00
2022-08-05T20:26:31.678Z,0.00
2022-08-05T20:27:41.594Z,0.00
2022-08-05T20:28:31.623Z,0.00
2022-08-05T20:29:30.682Z,0.00
2022-08-05T20:30:30.605Z,0.00
2022-08-05T20:31:42.969Z,0.00
2022-08-05T20:32:31.628Z,0.00
2022-08-05T20:33:30.999Z,0.00
2022-08-05T20:34:30.582Z,0.00
2022-08-05T20:35:31.448Z,0.00
2022-08-05T20:36:30.613Z,0.00
2022-08-05T20:38:06.835Z,0.00
2022-08-05T20:38:35.432Z,0.00
2022-08-05T20:39:36.752Z,0.00
2022-08-05T20:40:32.815Z,0.00
2022-08-05T20:41:43.323Z,0.00
2022-08-05T20:42:31.495Z,0.00
2022-08-05T20:43:57.693Z,0.00
2022-08-05T20:44:31.473Z,0.00
2022-08-05T20:45:47.631Z,0.00
2022-08-05T20:46:31.430Z,0.00
2022-08-05T20:47:32.382Z,0.00
2022-08-05T20:48:30.572Z,0.00
2022-08-05T20:49:30.416Z,0.00
2022-08-05T20:50:31.418Z,0.00
2022-08-05T20:51:30.379Z,0.00
2022-08-05T20:52:30.378Z,0.00
2022-08-05T20:53:36.741Z,0.00
2022-08-05T20:54:43.173Z,0.00
2022-08-05T20:55:56.663Z,0.00
2022-08-05T20:56:35.440Z,0.00
2022-08-05T20:57:43.227Z,0.00
2022-08-05T20:58:31.324Z,0.00
2022-08-05T21:00:10.751Z,0.00
2022-08-05T21:00:52.066Z,0.00
2022-08-05T21:01:37.568Z,0.00
2022-08-05T21:02:31.291Z,0.00
2022-08-05T21:03:30.283Z,0.00
2022-08-05T21:04:30.247Z,0.00
2022-08-05T21:05:47.824Z,0.00
2022-08-05T21:06:31.332Z,0.00